sensor_id;sensor_type;location;lat;lon;timestamp;temperature;humidity
53294;DHT22;39181;53.440;5.644;2024-01-11T00:00:44;-3.60;99.90
53294;DHT22;39181;53.440;5.644;2024-01-11T00:03:10;-3.60;99.90
53294;DHT22;39181;53.440;5.644;2024-01-11T00:05:36;-3.40;99.90
53294;DHT22;39181;53.440;5.644;2024-01-11T00:08:02;-3.70;99.90
53294;DHT22;39181;53.440;5.644;2024-01-11T00:10:27;-3.60;99.90
53294;DHT22;39181;53.440;5.644;2024-01-11T00:12:53;-3.30;99.90
53294;DHT22;39181;53.440;5.644;2024-01-11T00:15:19;-3.20;99.90
53294;DHT22;39181;53.440;5.644;2024-01-11T00:17:44;-3.20;99.90
53294;DHT22;39181;53.440;5.644;2024-01-11T00:20:10;-3.30;99.90
53294;DHT22;39181;53.440;5.644;2024-01-11T00:22:36;-3.50;99.90
53294;DHT22;39181;53.440;5.644;2024-01-11T00:25:02;-3.30;99.90
53294;DHT22;39181;53.440;5.644;2024-01-11T00:27:28;-3.50;99.90
53294;DHT22;39181;53.440;5.644;2024-01-11T00:29:53;-3.50;99.90
53294;DHT22;39181;53.440;5.644;2024-01-11T00:32:19;-3.40;99.90
53294;DHT22;39181;53.440;5.644;2024-01-11T00:34:46;-3.30;99.90
53294;DHT22;39181;53.440;5.644;2024-01-11T00:37:12;-3.60;99.90
53294;DHT22;39181;53.440;5.644;2024-01-11T00:39:37;-3.30;99.90
53294;DHT22;39181;53.440;5.644;2024-01-11T00:42:03;-3.30;99.90
53294;DHT22;39181;53.440;5.644;2024-01-11T00:44:29;-3.30;99.90
53294;DHT22;39181;53.440;5.644;2024-01-11T00:46:55;-3.30;99.90
53294;DHT22;39181;53.440;5.644;2024-01-11T00:49:21;-3.70;99.90
53294;DHT22;39181;53.440;5.644;2024-01-11T00:51:46;-3.50;99.90
53294;DHT22;39181;53.440;5.644;2024-01-11T00:54:12;-3.80;99.90
53294;DHT22;39181;53.440;5.644;2024-01-11T00:56:37;-3.60;99.90
53294;DHT22;39181;53.440;5.644;2024-01-11T00:59:03;-3.60;99.90
53294;DHT22;39181;53.440;5.644;2024-01-11T01:01:29;-3.80;99.90
53294;DHT22;39181;53.440;5.644;2024-01-11T01:03:55;-3.60;99.90
53294;DHT22;39181;53.440;5.644;2024-01-11T01:06:21;-3.60;99.90
53294;DHT22;39181;53.440;5.644;2024-01-11T01:08:46;-3.70;99.90
53294;DHT22;39181;53.440;5.644;2024-01-11T01:11:12;-3.90;99.90
53294;DHT22;39181;53.440;5.644;2024-01-11T01:13:38;-3.90;99.90
53294;DHT22;39181;53.440;5.644;2024-01-11T01:16:03;-3.70;99.90
53294;DHT22;39181;53.440;5.644;2024-01-11T01:18:29;-3.80;99.90
53294;DHT22;39181;53.440;5.644;2024-01-11T01:20:55;-4.00;99.90
53294;DHT22;39181;53.440;5.644;2024-01-11T01:23:21;-3.90;99.90
53294;DHT22;39181;53.440;5.644;2024-01-11T01:25:46;-4.10;99.90
53294;DHT22;39181;53.440;5.644;2024-01-11T01:28:12;-4.00;99.90
53294;DHT22;39181;53.440;5.644;2024-01-11T01:30:38;-4.30;99.90
53294;DHT22;39181;53.440;5.644;2024-01-11T01:33:03;-4.00;99.90
53294;DHT22;39181;53.440;5.644;2024-01-11T01:35:29;-4.10;99.90
53294;DHT22;39181;53.440;5.644;2024-01-11T01:37:55;-4.20;99.90
53294;DHT22;39181;53.440;5.644;2024-01-11T01:40:20;-4.40;99.90
53294;DHT22;39181;53.440;5.644;2024-01-11T01:42:48;-4.40;99.90
53294;DHT22;39181;53.440;5.644;2024-01-11T01:45:15;-4.40;99.90
53294;DHT22;39181;53.440;5.644;2024-01-11T01:47:41;-3.90;99.90
53294;DHT22;39181;53.440;5.644;2024-01-11T01:50:09;-4.10;99.90
53294;DHT22;39181;53.440;5.644;2024-01-11T01:52:36;-4.40;99.90
53294;DHT22;39181;53.440;5.644;2024-01-11T01:55:04;-4.30;99.90
53294;DHT22;39181;53.440;5.644;2024-01-11T01:57:32;-4.30;99.90
53294;DHT22;39181;53.440;5.644;2024-01-11T01:59:59;-4.20;99.90
53294;DHT22;39181;53.440;5.644;2024-01-11T02:02:24;-4.50;99.90
53294;DHT22;39181;53.440;5.644;2024-01-11T02:04:50;-4.30;99.90
53294;DHT22;39181;53.440;5.644;2024-01-11T02:07:16;-4.30;99.90
53294;DHT22;39181;53.440;5.644;2024-01-11T02:09:43;-4.30;99.90
53294;DHT22;39181;53.440;5.644;2024-01-11T02:12:09;-4.10;99.90
53294;DHT22;39181;53.440;5.644;2024-01-11T02:14:37;-4.50;99.90
53294;DHT22;39181;53.440;5.644;2024-01-11T02:17:03;-4.60;99.90
53294;DHT22;39181;53.440;5.644;2024-01-11T02:19:29;-4.40;99.90
53294;DHT22;39181;53.440;5.644;2024-01-11T02:21:54;-4.20;99.90
53294;DHT22;39181;53.440;5.644;2024-01-11T02:24:23;-4.30;99.90
53294;DHT22;39181;53.440;5.644;2024-01-11T02:27:18;-4.50;99.90
53294;DHT22;39181;53.440;5.644;2024-01-11T02:29:43;-4.60;99.90
53294;DHT22;39181;53.440;5.644;2024-01-11T02:32:09;-4.50;99.90
53294;DHT22;39181;53.440;5.644;2024-01-11T02:34:35;-4.30;99.90
53294;DHT22;39181;53.440;5.644;2024-01-11T02:37:01;-4.30;99.90
53294;DHT22;39181;53.440;5.644;2024-01-11T02:39:27;-4.30;99.90
53294;DHT22;39181;53.440;5.644;2024-01-11T02:41:55;-4.30;99.90
53294;DHT22;39181;53.440;5.644;2024-01-11T02:44:21;-4.40;99.90
53294;DHT22;39181;53.440;5.644;2024-01-11T02:46:46;-4.10;99.90
53294;DHT22;39181;53.440;5.644;2024-01-11T02:49:12;-4.50;99.90
53294;DHT22;39181;53.440;5.644;2024-01-11T02:51:37;-4.10;99.90
53294;DHT22;39181;53.440;5.644;2024-01-11T02:54:03;-4.30;99.90
53294;DHT22;39181;53.440;5.644;2024-01-11T02:56:29;-4.10;99.90
53294;DHT22;39181;53.440;5.644;2024-01-11T02:58:54;-4.10;99.90
53294;DHT22;39181;53.440;5.644;2024-01-11T03:01:20;-4.10;99.90
53294;DHT22;39181;53.440;5.644;2024-01-11T03:03:45;-4.10;99.90
53294;DHT22;39181;53.440;5.644;2024-01-11T03:06:11;-4.10;99.90
53294;DHT22;39181;53.440;5.644;2024-01-11T03:08:37;-4.10;99.90
53294;DHT22;39181;53.440;5.644;2024-01-11T03:11:02;-4.00;99.90
53294;DHT22;39181;53.440;5.644;2024-01-11T03:13:28;-4.20;99.90
53294;DHT22;39181;53.440;5.644;2024-01-11T03:15:53;-4.20;99.90
53294;DHT22;39181;53.440;5.644;2024-01-11T03:18:19;-4.00;99.90
53294;DHT22;39181;53.440;5.644;2024-01-11T03:20:44;-4.10;99.90
53294;DHT22;39181;53.440;5.644;2024-01-11T03:23:10;-4.30;99.90
53294;DHT22;39181;53.440;5.644;2024-01-11T03:25:36;-4.20;99.90
53294;DHT22;39181;53.440;5.644;2024-01-11T03:28:01;-4.10;99.90
53294;DHT22;39181;53.440;5.644;2024-01-11T03:30:27;-3.90;99.90
53294;DHT22;39181;53.440;5.644;2024-01-11T03:32:53;-4.00;99.90
53294;DHT22;39181;53.440;5.644;2024-01-11T03:35:19;-3.90;99.90
53294;DHT22;39181;53.440;5.644;2024-01-11T03:37:45;-3.90;99.90
53294;DHT22;39181;53.440;5.644;2024-01-11T03:40:11;-4.10;99.90
53294;DHT22;39181;53.440;5.644;2024-01-11T03:42:37;-4.10;99.90
53294;DHT22;39181;53.440;5.644;2024-01-11T03:45:03;-3.80;99.90
53294;DHT22;39181;53.440;5.644;2024-01-11T03:47:29;-4.10;99.90
53294;DHT22;39181;53.440;5.644;2024-01-11T03:49:55;-4.00;99.90
53294;DHT22;39181;53.440;5.644;2024-01-11T03:52:20;-3.80;99.90
53294;DHT22;39181;53.440;5.644;2024-01-11T03:54:46;-4.00;99.90
53294;DHT22;39181;53.440;5.644;2024-01-11T03:57:11;-3.80;99.90
53294;DHT22;39181;53.440;5.644;2024-01-11T03:59:37;-4.00;99.90
53294;DHT22;39181;53.440;5.644;2024-01-11T04:02:03;-3.80;99.90
53294;DHT22;39181;53.440;5.644;2024-01-11T04:04:28;-3.90;99.90
53294;DHT22;39181;53.440;5.644;2024-01-11T04:06:54;-4.30;99.90
53294;DHT22;39181;53.440;5.644;2024-01-11T04:09:19;-3.90;99.90
53294;DHT22;39181;53.440;5.644;2024-01-11T04:11:47;-4.00;99.90
53294;DHT22;39181;53.440;5.644;2024-01-11T04:14:13;-4.00;99.90
53294;DHT22;39181;53.440;5.644;2024-01-11T04:16:42;-3.70;99.90
53294;DHT22;39181;53.440;5.644;2024-01-11T04:19:08;-3.60;99.90
53294;DHT22;39181;53.440;5.644;2024-01-11T04:21:34;-3.60;99.90
53294;DHT22;39181;53.440;5.644;2024-01-11T04:24:00;-3.70;99.90
53294;DHT22;39181;53.440;5.644;2024-01-11T04:26:25;-3.80;99.90
53294;DHT22;39181;53.440;5.644;2024-01-11T04:28:52;-3.40;99.90
53294;DHT22;39181;53.440;5.644;2024-01-11T04:31:18;-3.50;99.90
53294;DHT22;39181;53.440;5.644;2024-01-11T04:33:44;-3.60;99.90
53294;DHT22;39181;53.440;5.644;2024-01-11T04:36:10;-3.30;99.90
53294;DHT22;39181;53.440;5.644;2024-01-11T04:38:37;-3.40;99.90
53294;DHT22;39181;53.440;5.644;2024-01-11T04:41:09;-3.20;99.90
53294;DHT22;39181;53.440;5.644;2024-01-11T04:43:42;-3.30;99.90
53294;DHT22;39181;53.440;5.644;2024-01-11T04:46:21;-3.00;99.90
53294;DHT22;39181;53.440;5.644;2024-01-11T04:48:48;-2.90;99.90
53294;DHT22;39181;53.440;5.644;2024-01-11T04:51:15;-3.10;99.90
53294;DHT22;39181;53.440;5.644;2024-01-11T04:53:42;-3.10;99.90
53294;DHT22;39181;53.440;5.644;2024-01-11T04:56:09;-3.00;99.90
53294;DHT22;39181;53.440;5.644;2024-01-11T04:58:35;-2.70;99.90
53294;DHT22;39181;53.440;5.644;2024-01-11T05:01:02;-2.80;99.90
53294;DHT22;39181;53.440;5.644;2024-01-11T05:03:28;-2.70;99.90
53294;DHT22;39181;53.440;5.644;2024-01-11T05:05:53;-2.70;99.90
53294;DHT22;39181;53.440;5.644;2024-01-11T05:08:19;-2.50;99.90
53294;DHT22;39181;53.440;5.644;2024-01-11T05:10:44;-2.40;99.90
53294;DHT22;39181;53.440;5.644;2024-01-11T05:13:10;-2.20;99.90
53294;DHT22;39181;53.440;5.644;2024-01-11T05:15:35;-2.20;99.90
53294;DHT22;39181;53.440;5.644;2024-01-11T05:18:01;-2.20;99.90
53294;DHT22;39181;53.440;5.644;2024-01-11T05:20:26;-1.90;99.90
53294;DHT22;39181;53.440;5.644;2024-01-11T05:22:52;-1.80;99.90
53294;DHT22;39181;53.440;5.644;2024-01-11T05:25:17;-1.50;99.90
53294;DHT22;39181;53.440;5.644;2024-01-11T05:27:43;-1.20;99.90
53294;DHT22;39181;53.440;5.644;2024-01-11T05:30:09;-0.90;99.90
53294;DHT22;39181;53.440;5.644;2024-01-11T05:32:35;-0.90;99.90
53294;DHT22;39181;53.440;5.644;2024-01-11T05:35:00;-0.70;99.90
53294;DHT22;39181;53.440;5.644;2024-01-11T05:37:26;-0.60;99.90
53294;DHT22;39181;53.440;5.644;2024-01-11T05:39:51;-0.50;99.90
53294;DHT22;39181;53.440;5.644;2024-01-11T05:42:17;-0.40;99.90
53294;DHT22;39181;53.440;5.644;2024-01-11T05:44:43;-0.20;99.90
53294;DHT22;39181;53.440;5.644;2024-01-11T05:47:09;0.00;99.90
53294;DHT22;39181;53.440;5.644;2024-01-11T05:49:34;0.20;99.90
53294;DHT22;39181;53.440;5.644;2024-01-11T05:52:00;0.20;99.90
53294;DHT22;39181;53.440;5.644;2024-01-11T05:54:25;0.20;99.90
53294;DHT22;39181;53.440;5.644;2024-01-11T05:56:53;0.30;99.90
53294;DHT22;39181;53.440;5.644;2024-01-11T05:59:21;0.30;99.90
53294;DHT22;39181;53.440;5.644;2024-01-11T06:01:47;0.40;99.90
53294;DHT22;39181;53.440;5.644;2024-01-11T06:04:13;0.50;99.90
53294;DHT22;39181;53.440;5.644;2024-01-11T06:06:39;0.60;99.90
53294;DHT22;39181;53.440;5.644;2024-01-11T06:09:04;0.50;99.90
53294;DHT22;39181;53.440;5.644;2024-01-11T06:11:30;0.60;99.90
53294;DHT22;39181;53.440;5.644;2024-01-11T06:13:56;0.70;99.90
53294;DHT22;39181;53.440;5.644;2024-01-11T06:16:22;0.80;99.90
53294;DHT22;39181;53.440;5.644;2024-01-11T06:18:48;0.80;99.90
53294;DHT22;39181;53.440;5.644;2024-01-11T06:21:13;0.90;99.90
53294;DHT22;39181;53.440;5.644;2024-01-11T06:23:40;1.10;99.90
53294;DHT22;39181;53.440;5.644;2024-01-11T06:26:07;0.90;99.90
53294;DHT22;39181;53.440;5.644;2024-01-11T06:28:33;1.00;99.90
53294;DHT22;39181;53.440;5.644;2024-01-11T06:30:58;1.00;99.90
53294;DHT22;39181;53.440;5.644;2024-01-11T06:33:24;1.00;99.90
53294;DHT22;39181;53.440;5.644;2024-01-11T06:35:49;1.00;99.90
53294;DHT22;39181;53.440;5.644;2024-01-11T06:38:15;1.00;99.90
53294;DHT22;39181;53.440;5.644;2024-01-11T06:40:41;0.90;99.90
53294;DHT22;39181;53.440;5.644;2024-01-11T06:43:07;1.10;99.90
53294;DHT22;39181;53.440;5.644;2024-01-11T06:45:32;1.10;99.90
53294;DHT22;39181;53.440;5.644;2024-01-11T06:47:58;0.90;99.90
53294;DHT22;39181;53.440;5.644;2024-01-11T06:50:24;0.90;99.90
53294;DHT22;39181;53.440;5.644;2024-01-11T06:52:49;1.10;99.90
53294;DHT22;39181;53.440;5.644;2024-01-11T06:55:15;1.10;99.90
53294;DHT22;39181;53.440;5.644;2024-01-11T06:57:41;1.10;99.90
53294;DHT22;39181;53.440;5.644;2024-01-11T07:00:07;1.20;99.90
53294;DHT22;39181;53.440;5.644;2024-01-11T07:02:35;1.20;99.90
53294;DHT22;39181;53.440;5.644;2024-01-11T07:05:01;1.20;99.90
53294;DHT22;39181;53.440;5.644;2024-01-11T07:07:27;1.40;99.90
53294;DHT22;39181;53.440;5.644;2024-01-11T07:09:53;1.40;99.90
53294;DHT22;39181;53.440;5.644;2024-01-11T07:12:20;1.50;99.90
53294;DHT22;39181;53.440;5.644;2024-01-11T07:14:46;1.40;99.90
53294;DHT22;39181;53.440;5.644;2024-01-11T07:17:12;1.50;99.90
53294;DHT22;39181;53.440;5.644;2024-01-11T07:19:37;1.50;99.90
53294;DHT22;39181;53.440;5.644;2024-01-11T07:22:03;1.60;99.90
53294;DHT22;39181;53.440;5.644;2024-01-11T07:24:29;1.70;99.90
53294;DHT22;39181;53.440;5.644;2024-01-11T07:27:03;1.70;99.90
53294;DHT22;39181;53.440;5.644;2024-01-11T07:29:29;1.70;99.90
53294;DHT22;39181;53.440;5.644;2024-01-11T07:31:55;1.70;99.90
53294;DHT22;39181;53.440;5.644;2024-01-11T07:34:21;1.80;99.90
53294;DHT22;39181;53.440;5.644;2024-01-11T07:36:46;2.60;99.90
53294;DHT22;39181;53.440;5.644;2024-01-11T07:39:12;1.90;99.90
53294;DHT22;39181;53.440;5.644;2024-01-11T07:41:37;2.00;99.90
53294;DHT22;39181;53.440;5.644;2024-01-11T07:44:03;2.00;99.90
53294;DHT22;39181;53.440;5.644;2024-01-11T07:46:29;2.10;99.90
53294;DHT22;39181;53.440;5.644;2024-01-11T07:48:55;2.10;99.90
53294;DHT22;39181;53.440;5.644;2024-01-11T07:51:20;2.10;99.90
53294;DHT22;39181;53.440;5.644;2024-01-11T07:53:46;2.20;99.90
53294;DHT22;39181;53.440;5.644;2024-01-11T07:56:11;2.30;99.90
53294;DHT22;39181;53.440;5.644;2024-01-11T07:58:37;2.20;99.90
53294;DHT22;39181;53.440;5.644;2024-01-11T08:01:03;2.20;99.90
53294;DHT22;39181;53.440;5.644;2024-01-11T08:03:29;2.20;99.90
53294;DHT22;39181;53.440;5.644;2024-01-11T08:05:55;2.30;99.90
53294;DHT22;39181;53.440;5.644;2024-01-11T08:08:21;2.30;99.90
53294;DHT22;39181;53.440;5.644;2024-01-11T08:10:47;2.40;99.90
53294;DHT22;39181;53.440;5.644;2024-01-11T08:13:15;2.40;99.90
53294;DHT22;39181;53.440;5.644;2024-01-11T08:15:41;2.50;99.90
53294;DHT22;39181;53.440;5.644;2024-01-11T08:18:07;2.60;99.90
53294;DHT22;39181;53.440;5.644;2024-01-11T08:20:32;2.60;99.90
53294;DHT22;39181;53.440;5.644;2024-01-11T08:22:58;2.60;99.90
53294;DHT22;39181;53.440;5.644;2024-01-11T08:25:24;2.60;99.90
53294;DHT22;39181;53.440;5.644;2024-01-11T08:27:49;2.80;99.90
53294;DHT22;39181;53.440;5.644;2024-01-11T08:30:15;2.80;99.90
53294;DHT22;39181;53.440;5.644;2024-01-11T08:32:41;2.90;99.90
53294;DHT22;39181;53.440;5.644;2024-01-11T08:35:09;2.90;99.90
53294;DHT22;39181;53.440;5.644;2024-01-11T08:37:35;2.90;99.90
53294;DHT22;39181;53.440;5.644;2024-01-11T08:40:02;3.10;99.90
53294;DHT22;39181;53.440;5.644;2024-01-11T08:42:30;3.20;99.90
53294;DHT22;39181;53.440;5.644;2024-01-11T08:44:56;3.20;99.90
53294;DHT22;39181;53.440;5.644;2024-01-11T08:47:21;3.40;99.90
53294;DHT22;39181;53.440;5.644;2024-01-11T08:49:47;3.30;99.90
53294;DHT22;39181;53.440;5.644;2024-01-11T08:52:12;3.40;99.90
53294;DHT22;39181;53.440;5.644;2024-01-11T08:54:38;3.50;99.90
53294;DHT22;39181;53.440;5.644;2024-01-11T08:57:04;3.60;99.90
53294;DHT22;39181;53.440;5.644;2024-01-11T08:59:30;3.50;99.90
53294;DHT22;39181;53.440;5.644;2024-01-11T09:01:55;3.60;99.90
53294;DHT22;39181;53.440;5.644;2024-01-11T09:04:21;3.60;99.90
53294;DHT22;39181;53.440;5.644;2024-01-11T09:06:46;3.60;99.90
53294;DHT22;39181;53.440;5.644;2024-01-11T09:09:12;3.60;99.90
53294;DHT22;39181;53.440;5.644;2024-01-11T09:11:39;3.60;99.90
53294;DHT22;39181;53.440;5.644;2024-01-11T09:14:06;3.70;99.90
53294;DHT22;39181;53.440;5.644;2024-01-11T09:16:32;3.80;99.90
53294;DHT22;39181;53.440;5.644;2024-01-11T09:18:58;3.90;99.90
53294;DHT22;39181;53.440;5.644;2024-01-11T09:21:26;4.00;99.90
53294;DHT22;39181;53.440;5.644;2024-01-11T09:23:51;4.00;99.90
53294;DHT22;39181;53.440;5.644;2024-01-11T09:26:17;4.10;99.90
53294;DHT22;39181;53.440;5.644;2024-01-11T09:28:43;4.20;99.90
53294;DHT22;39181;53.440;5.644;2024-01-11T09:31:08;4.20;99.90
53294;DHT22;39181;53.440;5.644;2024-01-11T09:33:34;4.20;99.90
53294;DHT22;39181;53.440;5.644;2024-01-11T09:35:59;4.30;99.90
53294;DHT22;39181;53.440;5.644;2024-01-11T09:38:25;4.30;99.90
53294;DHT22;39181;53.440;5.644;2024-01-11T09:41:11;4.30;99.90
53294;DHT22;39181;53.440;5.644;2024-01-11T09:43:37;4.40;99.90
53294;DHT22;39181;53.440;5.644;2024-01-11T09:46:04;4.40;99.90
53294;DHT22;39181;53.440;5.644;2024-01-11T09:48:35;4.50;99.90
53294;DHT22;39181;53.440;5.644;2024-01-11T09:51:02;4.50;99.90
53294;DHT22;39181;53.440;5.644;2024-01-11T09:53:32;4.50;99.90
53294;DHT22;39181;53.440;5.644;2024-01-11T09:55:58;4.50;99.90
53294;DHT22;39181;53.440;5.644;2024-01-11T09:58:25;4.60;99.90
53294;DHT22;39181;53.440;5.644;2024-01-11T10:00:54;4.60;99.90
53294;DHT22;39181;53.440;5.644;2024-01-11T10:03:23;4.50;99.90
53294;DHT22;39181;53.440;5.644;2024-01-11T10:05:50;4.60;99.90
53294;DHT22;39181;53.440;5.644;2024-01-11T10:08:19;4.60;99.90
53294;DHT22;39181;53.440;5.644;2024-01-11T10:10:46;4.60;99.90
53294;DHT22;39181;53.440;5.644;2024-01-11T10:13:12;4.60;99.90
53294;DHT22;39181;53.440;5.644;2024-01-11T10:15:37;4.60;99.90
53294;DHT22;39181;53.440;5.644;2024-01-11T10:18:03;4.70;99.90
53294;DHT22;39181;53.440;5.644;2024-01-11T10:20:29;4.70;99.90
53294;DHT22;39181;53.440;5.644;2024-01-11T10:22:57;4.70;99.90
53294;DHT22;39181;53.440;5.644;2024-01-11T10:25:23;4.80;99.90
53294;DHT22;39181;53.440;5.644;2024-01-11T10:27:48;4.80;99.90
53294;DHT22;39181;53.440;5.644;2024-01-11T10:30:15;4.80;99.90
53294;DHT22;39181;53.440;5.644;2024-01-11T10:32:43;4.90;99.90
53294;DHT22;39181;53.440;5.644;2024-01-11T10:35:08;4.90;99.90
53294;DHT22;39181;53.440;5.644;2024-01-11T10:37:34;4.90;99.90
53294;DHT22;39181;53.440;5.644;2024-01-11T10:40:05;4.90;99.90
53294;DHT22;39181;53.440;5.644;2024-01-11T10:42:35;5.00;99.90
53294;DHT22;39181;53.440;5.644;2024-01-11T10:45:03;5.00;99.90
53294;DHT22;39181;53.440;5.644;2024-01-11T10:47:34;5.10;99.90
53294;DHT22;39181;53.440;5.644;2024-01-11T10:50:01;5.20;99.90
53294;DHT22;39181;53.440;5.644;2024-01-11T10:52:32;5.20;99.90
53294;DHT22;39181;53.440;5.644;2024-01-11T10:55:02;5.20;99.90
53294;DHT22;39181;53.440;5.644;2024-01-11T10:57:29;5.80;99.90
53294;DHT22;39181;53.440;5.644;2024-01-11T10:59:56;5.30;99.90
53294;DHT22;39181;53.440;5.644;2024-01-11T11:02:22;5.40;99.90
53294;DHT22;39181;53.440;5.644;2024-01-11T11:04:51;5.30;99.90
53294;DHT22;39181;53.440;5.644;2024-01-11T11:07:18;5.40;99.90
53294;DHT22;39181;53.440;5.644;2024-01-11T11:09:46;5.40;99.90
53294;DHT22;39181;53.440;5.644;2024-01-11T11:12:14;5.40;99.90
53294;DHT22;39181;53.440;5.644;2024-01-11T11:14:42;5.50;99.90
53294;DHT22;39181;53.440;5.644;2024-01-11T11:17:09;5.50;99.90
53294;DHT22;39181;53.440;5.644;2024-01-11T11:19:35;5.50;99.90
53294;DHT22;39181;53.440;5.644;2024-01-11T11:22:04;5.50;99.90
53294;DHT22;39181;53.440;5.644;2024-01-11T11:24:30;5.40;99.90
53294;DHT22;39181;53.440;5.644;2024-01-11T11:26:55;5.50;99.90
53294;DHT22;39181;53.440;5.644;2024-01-11T11:29:22;5.60;99.90
53294;DHT22;39181;53.440;5.644;2024-01-11T11:31:48;5.50;99.90
53294;DHT22;39181;53.440;5.644;2024-01-11T11:34:19;5.50;99.90
53294;DHT22;39181;53.440;5.644;2024-01-11T11:36:46;5.60;99.90
53294;DHT22;39181;53.440;5.644;2024-01-11T11:39:13;5.50;99.90
53294;DHT22;39181;53.440;5.644;2024-01-11T11:41:39;5.50;99.90
53294;DHT22;39181;53.440;5.644;2024-01-11T11:44:06;5.60;99.90
53294;DHT22;39181;53.440;5.644;2024-01-11T11:46:32;5.70;99.90
53294;DHT22;39181;53.440;5.644;2024-01-11T11:48:59;5.70;99.90
53294;DHT22;39181;53.440;5.644;2024-01-11T11:51:25;5.70;99.90
53294;DHT22;39181;53.440;5.644;2024-01-11T11:53:52;5.60;99.90
53294;DHT22;39181;53.440;5.644;2024-01-11T11:56:19;5.70;99.90
53294;DHT22;39181;53.440;5.644;2024-01-11T11:58:46;5.60;99.90
53294;DHT22;39181;53.440;5.644;2024-01-11T12:01:14;5.60;99.90
53294;DHT22;39181;53.440;5.644;2024-01-11T12:03:41;5.70;99.90
53294;DHT22;39181;53.440;5.644;2024-01-11T12:06:09;5.60;99.90
53294;DHT22;39181;53.440;5.644;2024-01-11T12:08:36;5.60;99.90
53294;DHT22;39181;53.440;5.644;2024-01-11T12:11:02;5.60;99.90
53294;DHT22;39181;53.440;5.644;2024-01-11T12:13:28;5.70;99.90
53294;DHT22;39181;53.440;5.644;2024-01-11T12:15:56;5.70;99.90
53294;DHT22;39181;53.440;5.644;2024-01-11T12:18:22;5.70;99.90
53294;DHT22;39181;53.440;5.644;2024-01-11T12:20:47;5.60;99.90
53294;DHT22;39181;53.440;5.644;2024-01-11T12:23:13;5.80;99.90
53294;DHT22;39181;53.440;5.644;2024-01-11T12:25:41;5.70;99.90
53294;DHT22;39181;53.440;5.644;2024-01-11T12:28:07;5.70;99.90
53294;DHT22;39181;53.440;5.644;2024-01-11T12:30:33;5.70;99.90
53294;DHT22;39181;53.440;5.644;2024-01-11T12:32:59;5.80;99.90
53294;DHT22;39181;53.440;5.644;2024-01-11T12:35:27;5.70;99.90
53294;DHT22;39181;53.440;5.644;2024-01-11T12:38:00;5.80;99.90
53294;DHT22;39181;53.440;5.644;2024-01-11T12:40:27;5.90;99.90
53294;DHT22;39181;53.440;5.644;2024-01-11T12:42:53;6.00;99.90
53294;DHT22;39181;53.440;5.644;2024-01-11T12:45:20;6.00;99.90
53294;DHT22;39181;53.440;5.644;2024-01-11T12:47:46;6.00;99.90
53294;DHT22;39181;53.440;5.644;2024-01-11T12:50:12;6.00;99.90
53294;DHT22;39181;53.440;5.644;2024-01-11T12:52:38;6.10;99.90
53294;DHT22;39181;53.440;5.644;2024-01-11T12:55:06;6.00;99.90
53294;DHT22;39181;53.440;5.644;2024-01-11T12:57:32;6.10;99.90
53294;DHT22;39181;53.440;5.644;2024-01-11T13:00:09;6.10;99.90
53294;DHT22;39181;53.440;5.644;2024-01-11T13:02:36;6.10;99.90
53294;DHT22;39181;53.440;5.644;2024-01-11T13:05:02;6.20;99.90
53294;DHT22;39181;53.440;5.644;2024-01-11T13:07:28;6.20;99.90
53294;DHT22;39181;53.440;5.644;2024-01-11T13:09:53;6.30;99.90
53294;DHT22;39181;53.440;5.644;2024-01-11T13:12:19;6.30;99.90
53294;DHT22;39181;53.440;5.644;2024-01-11T13:14:46;6.30;99.90
53294;DHT22;39181;53.440;5.644;2024-01-11T13:17:12;6.30;99.90
53294;DHT22;39181;53.440;5.644;2024-01-11T13:19:38;6.30;99.90
53294;DHT22;39181;53.440;5.644;2024-01-11T13:22:04;6.20;99.90
53294;DHT22;39181;53.440;5.644;2024-01-11T13:24:30;6.20;99.90
53294;DHT22;39181;53.440;5.644;2024-01-11T13:26:55;6.10;99.90
53294;DHT22;39181;53.440;5.644;2024-01-11T13:29:21;6.10;99.90
53294;DHT22;39181;53.440;5.644;2024-01-11T13:31:47;6.20;99.90
53294;DHT22;39181;53.440;5.644;2024-01-11T13:34:12;6.10;99.90
53294;DHT22;39181;53.440;5.644;2024-01-11T13:36:38;6.10;99.90
53294;DHT22;39181;53.440;5.644;2024-01-11T13:39:04;6.10;99.90
53294;DHT22;39181;53.440;5.644;2024-01-11T13:41:29;6.10;99.90
53294;DHT22;39181;53.440;5.644;2024-01-11T13:43:55;6.10;99.90
53294;DHT22;39181;53.440;5.644;2024-01-11T13:46:21;6.10;99.90
53294;DHT22;39181;53.440;5.644;2024-01-11T13:48:46;6.10;99.90
53294;DHT22;39181;53.440;5.644;2024-01-11T13:51:13;6.50;99.90
53294;DHT22;39181;53.440;5.644;2024-01-11T13:53:39;6.20;99.90
53294;DHT22;39181;53.440;5.644;2024-01-11T13:56:05;6.20;99.90
53294;DHT22;39181;53.440;5.644;2024-01-11T13:58:31;6.30;99.90
53294;DHT22;39181;53.440;5.644;2024-01-11T14:00:56;6.20;99.90
53294;DHT22;39181;53.440;5.644;2024-01-11T14:03:22;6.20;99.90
53294;DHT22;39181;53.440;5.644;2024-01-11T14:05:48;6.10;99.90
53294;DHT22;39181;53.440;5.644;2024-01-11T14:08:13;6.30;99.90
53294;DHT22;39181;53.440;5.644;2024-01-11T14:10:39;6.20;99.90
53294;DHT22;39181;53.440;5.644;2024-01-11T14:13:04;6.30;99.90
53294;DHT22;39181;53.440;5.644;2024-01-11T14:15:30;6.30;99.90
53294;DHT22;39181;53.440;5.644;2024-01-11T14:17:56;6.20;99.90
53294;DHT22;39181;53.440;5.644;2024-01-11T14:20:22;6.20;99.90
53294;DHT22;39181;53.440;5.644;2024-01-11T14:22:48;6.10;99.90
53294;DHT22;39181;53.440;5.644;2024-01-11T14:25:18;6.10;99.90
53294;DHT22;39181;53.440;5.644;2024-01-11T14:27:45;6.00;99.90
53294;DHT22;39181;53.440;5.644;2024-01-11T14:30:11;6.10;99.90
53294;DHT22;39181;53.440;5.644;2024-01-11T14:32:37;6.00;99.90
53294;DHT22;39181;53.440;5.644;2024-01-11T14:35:04;6.10;99.90
53294;DHT22;39181;53.440;5.644;2024-01-11T14:37:34;6.10;99.90
53294;DHT22;39181;53.440;5.644;2024-01-11T14:40:00;6.10;99.90
53294;DHT22;39181;53.440;5.644;2024-01-11T14:42:26;6.10;99.90
53294;DHT22;39181;53.440;5.644;2024-01-11T14:44:52;6.10;99.90
53294;DHT22;39181;53.440;5.644;2024-01-11T14:47:18;6.00;99.90
53294;DHT22;39181;53.440;5.644;2024-01-11T14:49:45;6.00;99.90
53294;DHT22;39181;53.440;5.644;2024-01-11T14:52:10;5.90;99.90
53294;DHT22;39181;53.440;5.644;2024-01-11T14:54:36;6.10;99.90
53294;DHT22;39181;53.440;5.644;2024-01-11T14:57:01;6.00;99.90
53294;DHT22;39181;53.440;5.644;2024-01-11T14:59:28;6.00;99.90
53294;DHT22;39181;53.440;5.644;2024-01-11T15:01:53;6.00;99.90
53294;DHT22;39181;53.440;5.644;2024-01-11T15:04:19;5.90;99.90
53294;DHT22;39181;53.440;5.644;2024-01-11T15:06:44;5.90;99.90
53294;DHT22;39181;53.440;5.644;2024-01-11T15:09:10;6.00;99.90
53294;DHT22;39181;53.440;5.644;2024-01-11T15:11:38;5.90;99.90
53294;DHT22;39181;53.440;5.644;2024-01-11T15:14:05;5.90;99.90
53294;DHT22;39181;53.440;5.644;2024-01-11T15:16:31;5.90;99.90
53294;DHT22;39181;53.440;5.644;2024-01-11T15:18:56;5.90;99.90
53294;DHT22;39181;53.440;5.644;2024-01-11T15:21:22;5.70;99.90
53294;DHT22;39181;53.440;5.644;2024-01-11T15:23:48;5.90;99.90
53294;DHT22;39181;53.440;5.644;2024-01-11T15:26:13;5.80;99.90
53294;DHT22;39181;53.440;5.644;2024-01-11T15:28:39;5.80;99.90
53294;DHT22;39181;53.440;5.644;2024-01-11T15:31:05;5.80;99.90
53294;DHT22;39181;53.440;5.644;2024-01-11T15:33:31;5.80;99.90